Terminal Aerodrome Forecast
Issued by NWS

Home | Current Version | Previous Version | Text Only | Print | Product List | Glossary On
Versions: 1 2 3 4 5 6 7 8 9 10 11 12 13 14 15 16 17 18 19 20 21
145
FTUS41 KBGM 100906 AAA
TAFITH
TAF AMD
KITH 100906Z 1009/1106 32005KT P6SM OVC020
     FM101100 28004KT P6SM BKN035
     FM101600 26009KT P6SM -SN OVC028
     FM102200 25006KT P6SM BKN035=

USA.gov is the U.S. government's official web portal to all federal, state and local government web resources and services.